Terminal Aerodrome Forecast
Issued by NWS

Home | Current Version | Previous Version | Text Only | Print | Product List | Glossary On
Versions: 1 2 3 4 5 6 7 8 9 10 11 12 13 14 15 16 17 18 19 20 21 22 23 24 25
000
FTUS42 KJAX 071120
TAFVQQ
TAF
KVQQ 071120Z 0712/0812 00000KT P6SM SCT150 BKN250
     FM071400 31006KT P6SM SCT035 SCT250
     FM071900 12009KT P6SM VCTS SCT045CB SCT150 BKN250
      TEMPO 0719/0723 VRB15G25KT 3SM TSRA BR SCT020 BKN040CB OVC100
     FM072300 17006KT P6SM VCSH SCT050 BKN150 OVC250
     FM080200 00000KT P6SM FEW050 SCT150 BKN250=

USA.gov is the U.S. government's official web portal to all federal, state and local government web resources and services.